Time;durP1;ratioP1;P1;durP2;ratioP2;P2;SDS_P1;SDS_P2;PMS_P1;PMS_P2;Temp;Humidity;BMP_temperature;BMP_pressure;BME280_temperature;BME280_humidity;BME280_pressure;Samples;Min_cycle;Max_cycle;Signal;HPM_P1;HPM_P2
2024/01/05 00:01:45;;;;;;;5.45;2.60;;;4.90;99.90;;;;;;5058682;28;20222;-77
2024/01/05 00:04:12;;;;;;;2.40;2.08;;;4.90;99.90;;;;;;5057363;28;20583;-77
2024/01/05 00:06:39;;;;;;;2.83;2.22;;;4.90;99.90;;;;;;5060098;28;20223;-76
2024/01/05 00:09:07;;;;;;;7.88;3.50;;;4.90;99.90;;;;;;5059041;28;20204;-76
2024/01/05 00:11:34;;;;;;;3.20;2.83;;;4.80;99.90;;;;;;5056203;27;20577;-76
2024/01/05 00:14:00;;;;;;;4.88;3.80;;;4.70;99.90;;;;;;5057305;28;20199;-76
2024/01/05 00:16:28;;;;;;;3.33;3.03;;;4.80;99.90;;;;;;5048923;27;20196;-76
2024/01/05 00:18:55;;;;;;;2.10;2.00;;;4.80;99.90;;;;;;5050968;28;20196;-77
2024/01/05 00:21:23;;;;;;;4.90;2.40;;;4.70;99.90;;;;;;5056047;28;20212;-77
2024/01/05 00:23:51;;;;;;;13.57;2.92;;;4.80;99.90;;;;;;5055435;28;20562;-77
2024/01/05 00:26:19;;;;;;;2.92;2.72;;;4.70;99.90;;;;;;5050712;28;20653;-77
2024/01/05 00:28:47;;;;;;;2.50;2.20;;;4.70;99.90;;;;;;5044662;28;20630;-77
2024/01/05 00:31:15;;;;;;;6.50;2.88;;;4.70;99.90;;;;;;5041766;28;20224;-77
2024/01/05 00:33:42;;;;;;;2.50;2.08;;;4.70;99.90;;;;;;5053781;28;20218;-76
2024/01/05 00:36:11;;;;;;;2.97;2.67;;;4.60;99.90;;;;;;5044114;28;20571;-77
2024/01/05 00:38:38;;;;;;;3.00;2.72;;;4.80;99.90;;;;;;5047773;28;20204;-76
2024/01/05 00:41:05;;;;;;;2.88;2.50;;;4.60;99.90;;;;;;5047459;28;20204;-77
2024/01/05 00:43:33;;;;;;;4.20;3.40;;;4.60;99.90;;;;;;5047921;28;20218;-77
2024/01/05 00:46:00;;;;;;;4.82;2.67;;;4.60;99.90;;;;;;5043622;28;20227;-77
2024/01/05 00:48:27;;;;;;;2.72;2.13;;;4.70;99.90;;;;;;5041519;28;20210;-77
2024/01/05 00:50:54;;;;;;;6.82;2.22;;;4.70;99.90;;;;;;5052125;27;20202;-77
2024/01/05 00:53:20;;;;;;;2.00;1.88;;;4.80;99.90;;;;;;5042950;28;20200;-77
2024/01/05 00:55:47;;;;;;;3.90;1.70;;;4.70;99.90;;;;;;5041005;28;20207;-77
2024/01/05 00:58:14;;;;;;;3.42;2.22;;;4.70;99.90;;;;;;5041914;28;20207;-77
2024/01/05 01:00:42;;;;;;;1.67;1.58;;;4.70;99.90;;;;;;5041895;28;20204;-77
2024/01/05 01:03:09;;;;;;;3.35;2.53;;;4.70;99.90;;;;;;5046075;28;20200;-77
2024/01/05 01:05:36;;;;;;;2.65;2.10;;;4.70;99.90;;;;;;5048516;28;20232;-76
2024/01/05 01:08:04;;;;;;;5.35;2.58;;;4.70;99.90;;;;;;5044692;28;20200;-77
2024/01/05 01:10:30;;;;;;;2.20;2.00;;;4.70;99.90;;;;;;5055563;27;20203;-77
2024/01/05 01:12:57;;;;;;;2.55;2.35;;;4.60;99.90;;;;;;5059998;28;20211;-76
2024/01/05 01:15:24;;;;;;;2.03;1.85;;;4.60;99.90;;;;;;5059359;28;20205;-76
2024/01/05 01:17:52;;;;;;;1.65;1.55;;;4.60;99.90;;;;;;5059108;28;20208;-77
2024/01/05 01:20:19;;;;;;;1.52;1.42;;;4.70;99.90;;;;;;5053423;28;20561;-76
2024/01/05 01:22:46;;;;;;;2.33;1.67;;;4.70;99.90;;;;;;5059014;28;20557;-77
2024/01/05 01:25:12;;;;;;;5.55;1.70;;;4.80;99.90;;;;;;5053521;28;20207;-76
2024/01/05 01:27:39;;;;;;;1.85;1.35;;;4.80;99.90;;;;;;5056926;28;20206;-76
2024/01/05 01:30:08;;;;;;;1.60;1.50;;;4.90;99.90;;;;;;5051695;28;20206;-76
2024/01/05 01:32:36;;;;;;;5.65;1.38;;;4.80;99.90;;;;;;5048967;28;20207;-76
2024/01/05 01:35:05;;;;;;;1.30;1.20;;;4.80;99.90;;;;;;5045088;28;20232;-76
2024/01/05 01:37:31;;;;;;;2.58;1.45;;;4.90;99.90;;;;;;5052534;28;20194;-77
2024/01/05 01:39:58;;;;;;;2.03;1.92;;;4.90;99.90;;;;;;5048499;28;20198;-77
2024/01/05 01:42:25;;;;;;;3.38;1.95;;;5.00;99.90;;;;;;5049775;28;20184;-77
2024/01/05 01:44:52;;;;;;;3.97;1.70;;;5.00;99.90;;;;;;5045590;28;20204;-76
2024/01/05 01:47:19;;;;;;;1.50;1.30;;;5.00;99.90;;;;;;5049069;28;20235;-76
2024/01/05 01:49:46;;;;;;;2.58;1.17;;;5.00;99.90;;;;;;5048948;28;20200;-77
2024/01/05 01:52:16;;;;;;;3.60;1.88;;;5.00;99.90;;;;;;5075146;27;20197;-76
2024/01/05 01:54:44;;;;;;;1.45;1.00;;;5.00;99.90;;;;;;5041015;28;20212;-76
2024/01/05 01:57:11;;;;;;;2.72;1.52;;;5.10;99.90;;;;;;5038326;28;20204;-76
2024/01/05 01:59:37;;;;;;;1.77;1.08;;;5.20;99.90;;;;;;5044910;28;20192;-76
2024/01/05 02:02:05;;;;;;;0.80;0.80;;;5.20;99.90;;;;;;5048978;28;20197;-76
2024/01/05 02:04:34;;;;;;;1.63;1.52;;;5.20;99.90;;;;;;5064188;28;20216;-76
2024/01/05 02:07:01;;;;;;;1.35;0.80;;;5.20;99.90;;;;;;5057444;28;20238;-76
2024/01/05 02:09:31;;;;;;;1.60;1.50;;;5.20;99.90;;;;;;5063099;28;20204;-76
2024/01/05 02:11:59;;;;;;;2.08;1.55;;;5.20;99.90;;;;;;5052155;28;20207;-77
2024/01/05 02:14:27;;;;;;;1.60;1.10;;;5.30;99.90;;;;;;5058225;28;20204;-77
2024/01/05 02:16:54;;;;;;;1.50;1.08;;;5.20;99.90;;;;;;5055344;28;20210;-76
2024/01/05 02:19:21;;;;;;;1.45;1.00;;;5.10;99.90;;;;;;5059021;28;20295;-77
2024/01/05 02:21:53;;;;;;;0.95;0.85;;;5.20;99.90;;;;;;5039072;27;20205;-77
2024/01/05 02:24:22;;;;;;;0.85;0.70;;;5.20;99.90;;;;;;5057323;28;20200;-77
2024/01/05 02:26:49;;;;;;;1.63;1.15;;;5.20;99.90;;;;;;5052842;28;20338;-76
2024/01/05 02:29:21;;;;;;;0.82;0.73;;;5.30;99.90;;;;;;5051407;28;20567;-77
2024/01/05 02:31:49;;;;;;;0.98;0.88;;;5.30;99.90;;;;;;5044220;28;20203;-77
2024/01/05 02:34:17;;;;;;;0.60;0.60;;;5.30;99.90;;;;;;5051254;28;20201;-76
2024/01/05 02:36:45;;;;;;;3.25;1.50;;;5.30;99.90;;;;;;5045057;28;20762;-76
2024/01/05 02:39:14;;;;;;;4.72;2.17;;;5.30;99.90;;;;;;5050575;28;20253;-77
2024/01/05 02:41:43;;;;;;;2.03;1.10;;;5.40;99.90;;;;;;5047161;28;20208;-76
2024/01/05 02:44:11;;;;;;;1.85;1.50;;;5.30;99.90;;;;;;5038169;28;20224;-77
2024/01/05 02:46:38;;;;;;;4.78;3.92;;;5.30;99.90;;;;;;5049388;28;20757;-77
2024/01/05 02:49:05;;;;;;;1.10;1.10;;;5.40;99.90;;;;;;5045905;28;20751;-76
2024/01/05 02:51:33;;;;;;;1.00;1.00;;;5.30;99.90;;;;;;5041918;28;20235;-76
2024/01/05 02:54:01;;;;;;;3.60;1.70;;;5.30;99.90;;;;;;5037151;28;20540;-77
2024/01/05 02:56:28;;;;;;;2.15;1.45;;;5.30;99.90;;;;;;5039144;27;20193;-76
2024/01/05 02:58:56;;;;;;;1.58;1.35;;;5.30;99.90;;;;;;5040189;28;20252;-77
2024/01/05 03:01:23;;;;;;;3.40;1.20;;;5.20;99.90;;;;;;5050548;28;20302;-76
2024/01/05 03:03:50;;;;;;;3.75;1.48;;;5.30;99.90;;;;;;5051338;28;20278;-76
2024/01/05 03:06:18;;;;;;;2.53;1.15;;;5.30;99.90;;;;;;5058125;27;20763;-77
2024/01/05 03:08:45;;;;;;;0.82;0.80;;;5.30;99.90;;;;;;5061580;28;20223;-76
2024/01/05 03:11:13;;;;;;;3.35;1.50;;;5.20;99.90;;;;;;5043730;28;20200;-76
2024/01/05 03:13:40;;;;;;;1.85;1.00;;;5.20;99.90;;;;;;5052273;28;20192;-77
2024/01/05 03:16:09;;;;;;;2.85;1.23;;;5.20;99.90;;;;;;5051051;27;20645;-76
2024/01/05 03:18:37;;;;;;;2.67;1.05;;;5.10;99.90;;;;;;5058182;28;20210;-77
2024/01/05 03:21:05;;;;;;;1.73;1.35;;;5.20;99.90;;;;;;5047289;28;20200;-76
2024/01/05 03:23:33;;;;;;;1.98;0.90;;;5.30;99.90;;;;;;5047568;28;20207;-76
2024/01/05 03:26:00;;;;;;;1.45;1.35;;;5.20;99.90;;;;;;5049806;28;20248;-76
2024/01/05 03:28:28;;;;;;;0.57;0.47;;;5.30;99.90;;;;;;5053700;28;20672;-76
2024/01/05 03:30:56;;;;;;;1.20;0.80;;;5.30;99.90;;;;;;5051740;28;20211;-77
2024/01/05 03:33:25;;;;;;;0.90;0.80;;;5.20;99.90;;;;;;5051434;28;20196;-77
2024/01/05 03:35:53;;;;;;;1.40;0.95;;;5.20;99.90;;;;;;5051768;28;20207;-77
2024/01/05 03:38:21;;;;;;;1.27;1.08;;;5.20;99.90;;;;;;5050051;28;20203;-77
2024/01/05 03:40:48;;;;;;;0.73;0.60;;;5.30;99.90;;;;;;5043126;28;20211;-77
2024/01/05 03:43:15;;;;;;;1.30;1.20;;;5.30;99.90;;;;;;5046691;28;20235;-77
2024/01/05 03:45:43;;;;;;;0.85;0.45;;;5.20;99.90;;;;;;5042041;28;20204;-77
2024/01/05 03:48:11;;;;;;;1.20;0.88;;;5.20;99.90;;;;;;5046548;28;20227;-78
2024/01/05 03:50:39;;;;;;;0.80;0.63;;;5.40;99.90;;;;;;5074056;27;20294;-77
2024/01/05 03:53:05;;;;;;;1.25;0.65;;;5.40;99.90;;;;;;5091406;27;20552;-77
2024/01/05 03:55:32;;;;;;;0.90;0.90;;;5.40;99.90;;;;;;5087881;27;20200;-77
2024/01/05 03:57:59;;;;;;;1.88;0.88;;;5.40;99.90;;;;;;5078634;27;20196;-77
2024/01/05 04:00:26;;;;;;;0.70;0.52;;;5.50;99.90;;;;;;5085805;27;20252;-77
2024/01/05 04:02:53;;;;;;;2.42;0.85;;;5.50;99.90;;;;;;5086541;27;20223;-77
2024/01/05 04:05:19;;;;;;;0.65;0.47;;;5.50;99.90;;;;;;5055645;27;20196;-77
2024/01/05 04:07:47;;;;;;;1.05;0.50;;;5.50;99.90;;;;;;5047655;28;20227;-77
2024/01/05 04:10:14;;;;;;;1.42;0.60;;;5.60;99.90;;;;;;5046102;28;20204;-77
2024/01/05 04:12:41;;;;;;;0.65;0.50;;;5.70;99.90;;;;;;5046513;28;20552;-77
2024/01/05 04:15:09;;;;;;;0.63;0.40;;;5.70;99.90;;;;;;5045484;28;20200;-77
2024/01/05 04:17:36;;;;;;;0.70;0.70;;;5.80;99.90;;;;;;5044022;28;20203;-77
2024/01/05 04:20:03;;;;;;;0.55;0.40;;;5.90;99.90;;;;;;5043247;28;20209;-78
2024/01/05 04:22:31;;;;;;;1.05;0.47;;;5.90;99.90;;;;;;5049274;28;20664;-77
2024/01/05 04:24:59;;;;;;;0.70;0.70;;;5.90;99.90;;;;;;5062393;27;20206;-77
2024/01/05 04:27:26;;;;;;;0.95;0.82;;;6.00;99.90;;;;;;5049239;28;20223;-77
2024/01/05 04:29:52;;;;;;;0.93;0.63;;;6.00;99.90;;;;;;5047609;28;20204;-77
2024/01/05 04:32:19;;;;;;;1.40;0.93;;;6.00;99.90;;;;;;5060042;28;20206;-77
2024/01/05 04:34:46;;;;;;;0.30;0.28;;;6.10;99.90;;;;;;5055126;28;20559;-78
2024/01/05 04:37:13;;;;;;;1.20;0.52;;;6.10;99.90;;;;;;5053044;28;20624;-77
2024/01/05 04:39:40;;;;;;;0.88;0.40;;;6.10;99.90;;;;;;5052627;28;20656;-77
2024/01/05 04:42:08;;;;;;;1.23;0.85;;;6.10;99.90;;;;;;5053217;27;20196;-77
2024/01/05 04:44:34;;;;;;;0.65;0.40;;;6.20;99.90;;;;;;5056964;28;20202;-77
2024/01/05 04:47:02;;;;;;;2.45;0.63;;;6.30;99.90;;;;;;5045548;28;20225;-77
2024/01/05 04:49:29;;;;;;;0.85;0.65;;;6.20;99.90;;;;;;5059867;27;20287;-78
2024/01/05 04:51:55;;;;;;;1.20;0.75;;;6.20;99.90;;;;;;5053810;28;20207;-77
2024/01/05 04:54:22;;;;;;;0.50;0.30;;;6.20;99.90;;;;;;5054252;28;20289;-77
2024/01/05 04:56:49;;;;;;;0.40;0.30;;;6.20;99.90;;;;;;5046274;28;20207;-77
2024/01/05 04:59:17;;;;;;;1.88;0.52;;;6.20;99.90;;;;;;5051921;28;20521;-77
2024/01/05 05:01:44;;;;;;;1.27;0.70;;;6.30;99.90;;;;;;5050960;28;20199;-77
2024/01/05 05:04:13;;;;;;;1.90;0.55;;;6.20;99.90;;;;;;5045467;28;20209;-77
2024/01/05 05:06:40;;;;;;;0.80;0.65;;;6.30;99.90;;;;;;5047613;28;20219;-77
2024/01/05 05:09:08;;;;;;;0.50;0.40;;;6.30;99.90;;;;;;5047729;28;20552;-77
2024/01/05 05:11:36;;;;;;;0.85;0.60;;;6.40;99.90;;;;;;5049551;28;20196;-77
2024/01/05 05:14:02;;;;;;;0.40;0.35;;;6.30;99.90;;;;;;5048736;28;20210;-77
2024/01/05 05:16:30;;;;;;;1.40;0.65;;;6.10;99.90;;;;;;5046805;28;20204;-77
2024/01/05 05:18:57;;;;;;;2.53;1.20;;;6.10;99.90;;;;;;5047865;28;20201;-77
2024/01/05 05:21:25;;;;;;;1.27;0.60;;;6.10;99.90;;;;;;5045154;28;20203;-77
2024/01/05 05:23:52;;;;;;;0.68;0.60;;;6.00;99.90;;;;;;5059298;28;20595;-77
2024/01/05 05:26:19;;;;;;;1.48;0.40;;;6.00;99.90;;;;;;5054583;28;20586;-77
2024/01/05 05:28:46;;;;;;;0.32;0.30;;;6.10;99.90;;;;;;5046641;28;20247;-78
2024/01/05 05:31:13;;;;;;;1.58;0.55;;;6.10;99.90;;;;;;5061458;27;20575;-77
2024/01/05 05:33:41;;;;;;;1.15;0.68;;;6.10;99.90;;;;;;5060423;28;20199;-77
2024/01/05 05:36:08;;;;;;;2.08;0.52;;;6.00;99.90;;;;;;5051760;28;20248;-77
2024/01/05 05:38:35;;;;;;;0.65;0.60;;;6.00;99.90;;;;;;5045792;28;20209;-77
2024/01/05 05:41:01;;;;;;;1.38;0.60;;;6.00;99.90;;;;;;5055176;28;20206;-77
2024/01/05 05:43:29;;;;;;;1.20;0.55;;;6.00;99.90;;;;;;5045935;27;20203;-77
2024/01/05 05:45:56;;;;;;;2.05;0.90;;;5.90;99.90;;;;;;5050540;28;20211;-77
2024/01/05 05:48:23;;;;;;;0.80;0.75;;;6.00;99.90;;;;;;5054121;27;20256;-82
2024/01/05 05:50:51;;;;;;;0.50;0.50;;;5.90;99.90;;;;;;5057446;27;20196;-80
2024/01/05 05:53:18;;;;;;;1.73;0.70;;;6.00;99.90;;;;;;5052396;27;20196;-79
2024/01/05 05:55:45;;;;;;;0.68;0.68;;;6.00;99.90;;;;;;5049052;28;20203;-79
2024/01/05 05:58:12;;;;;;;1.13;1.02;;;6.00;99.90;;;;;;5051896;28;20207;-79
2024/01/05 06:00:38;;;;;;;1.38;1.00;;;6.10;99.90;;;;;;5047675;28;20543;-79
2024/01/05 06:03:06;;;;;;;1.17;1.02;;;6.10;99.90;;;;;;5049437;28;20200;-80
2024/01/05 06:05:33;;;;;;;0.88;0.57;;;6.00;99.90;;;;;;5049673;28;20257;-79
2024/01/05 06:08:02;;;;;;;1.40;1.00;;;6.10;99.90;;;;;;5049538;27;20218;-82
2024/01/05 06:10:29;;;;;;;0.70;0.70;;;6.00;99.90;;;;;;5032997;28;20202;-82
2024/01/05 06:12:56;;;;;;;0.98;0.68;;;6.00;99.90;;;;;;5048384;28;20205;-82
2024/01/05 06:15:22;;;;;;;0.88;0.80;;;6.10;99.90;;;;;;5046354;28;20315;-81
2024/01/05 06:17:49;;;;;;;0.88;0.60;;;6.10;99.90;;;;;;5047559;28;20203;-81
2024/01/05 06:20:18;;;;;;;0.50;0.45;;;6.10;99.90;;;;;;5045444;28;20200;-81
2024/01/05 06:22:45;;;;;;;0.93;0.75;;;6.10;99.90;;;;;;5048930;28;20211;-80
2024/01/05 06:25:13;;;;;;;1.00;0.90;;;6.00;99.90;;;;;;5042507;28;20198;-80
2024/01/05 06:27:40;;;;;;;1.20;0.77;;;6.20;99.90;;;;;;5060221;27;20235;-82
2024/01/05 06:30:08;;;;;;;1.70;0.52;;;6.20;99.90;;;;;;5056961;27;20649;-81
2024/01/05 06:32:35;;;;;;;4.35;1.20;;;6.20;99.90;;;;;;5057828;28;20282;-83
2024/01/05 06:35:03;;;;;;;1.15;0.90;;;6.10;99.90;;;;;;5055583;27;20816;-81
2024/01/05 06:37:30;;;;;;;1.10;0.65;;;6.10;99.90;;;;;;5058536;27;20200;-83
2024/01/05 06:39:57;;;;;;;0.38;0.38;;;6.10;99.90;;;;;;5043401;28;20230;-82
2024/01/05 06:42:25;;;;;;;0.80;0.43;;;6.00;99.90;;;;;;5059133;28;20196;-82
2024/01/05 06:44:52;;;;;;;0.40;0.40;;;6.00;99.90;;;;;;5054068;28;20304;-80
2024/01/05 06:47:18;;;;;;;1.20;0.60;;;6.00;99.90;;;;;;5048614;27;20230;-79
2024/01/05 06:49:45;;;;;;;0.90;0.90;;;6.00;99.90;;;;;;5035869;27;20204;-79
2024/01/05 06:52:12;;;;;;;0.85;0.60;;;5.90;99.90;;;;;;5052993;27;20202;-79
2024/01/05 06:54:39;;;;;;;1.20;0.77;;;5.90;99.90;;;;;;5040898;28;20192;-79
2024/01/05 06:57:07;;;;;;;0.90;0.60;;;5.90;99.90;;;;;;5043405;28;20210;-81
2024/01/05 06:59:37;;;;;;;0.50;0.50;;;5.90;99.90;;;;;;5035577;28;20235;-79
2024/01/05 07:02:04;;;;;;;1.67;0.90;;;5.90;99.90;;;;;;5040653;28;20205;-79
2024/01/05 07:04:31;;;;;;;0.77;0.77;;;5.90;99.90;;;;;;5042532;28;20192;-79
2024/01/05 07:06:58;;;;;;;0.50;0.50;;;5.80;99.90;;;;;;5037747;27;20753;-78
2024/01/05 07:09:25;;;;;;;1.53;0.80;;;5.80;99.90;;;;;;5035410;28;20287;-78
2024/01/05 07:11:53;;;;;;;1.13;0.70;;;5.70;99.90;;;;;;5037343;28;20631;-78
2024/01/05 07:14:19;;;;;;;0.90;0.90;;;5.70;99.90;;;;;;5033636;28;20228;-78
2024/01/05 07:16:48;;;;;;;0.85;0.85;;;5.70;99.90;;;;;;5041536;28;20219;-78
2024/01/05 07:19:15;;;;;;;0.50;0.50;;;5.60;99.90;;;;;;5033818;27;20207;-78
2024/01/05 07:21:43;;;;;;;1.55;0.82;;;5.60;99.90;;;;;;5039161;28;20207;-79
2024/01/05 07:24:10;;;;;;;1.15;0.95;;;5.60;99.90;;;;;;5034330;28;20197;-79
2024/01/05 07:26:37;;;;;;;1.48;1.20;;;5.50;99.90;;;;;;5042832;28;20656;-78
2024/01/05 07:29:04;;;;;;;1.55;0.82;;;5.50;99.90;;;;;;5045799;28;20242;-79
2024/01/05 07:31:31;;;;;;;0.98;0.80;;;5.50;99.90;;;;;;5055979;28;20199;-78
2024/01/05 07:33:59;;;;;;;1.17;1.08;;;5.50;99.90;;;;;;5054101;27;20208;-79
2024/01/05 07:36:25;;;;;;;1.15;1.00;;;5.50;99.90;;;;;;5042270;28;20203;-79
2024/01/05 07:38:52;;;;;;;1.38;1.27;;;5.50;99.90;;;;;;5052624;28;20207;-79
2024/01/05 07:41:19;;;;;;;1.42;0.90;;;5.60;99.90;;;;;;5043638;28;20201;-79
2024/01/05 07:43:46;;;;;;;1.20;1.10;;;5.60;99.90;;;;;;5057988;28;20286;-79
2024/01/05 07:46:13;;;;;;;1.25;0.90;;;5.60;99.90;;;;;;5045601;28;20205;-79
2024/01/05 07:48:40;;;;;;;1.70;1.25;;;5.60;99.90;;;;;;5055597;27;20227;-79
2024/01/05 07:51:10;;;;;;;1.58;1.25;;;5.60;99.90;;;;;;5047962;27;20196;-79
2024/01/05 07:53:38;;;;;;;1.60;1.00;;;5.60;99.90;;;;;;5052995;27;20278;-79
2024/01/05 07:56:06;;;;;;;1.35;1.15;;;5.60;99.90;;;;;;5078040;27;20204;-79
2024/01/05 07:58:33;;;;;;;1.10;1.00;;;5.60;99.90;;;;;;5049008;28;20205;-78
2024/01/05 08:01:00;;;;;;;1.45;1.35;;;5.50;99.90;;;;;;5040062;28;20287;-79
2024/01/05 08:03:27;;;;;;;1.58;1.20;;;5.50;99.90;;;;;;5042232;28;20212;-79
2024/01/05 08:05:54;;;;;;;1.30;1.10;;;5.50;99.90;;;;;;5047618;27;20228;-79
2024/01/05 08:08:22;;;;;;;1.50;0.70;;;5.50;99.90;;;;;;5048091;28;20223;-79
2024/01/05 08:10:49;;;;;;;1.13;1.08;;;5.60;99.90;;;;;;5043251;27;20207;-78
2024/01/05 08:13:18;;;;;;;1.08;1.05;;;5.60;99.90;;;;;;5033829;27;20283;-78
2024/01/05 08:15:44;;;;;;;1.95;1.58;;;5.60;99.90;;;;;;5040459;28;20669;-79
2024/01/05 08:18:11;;;;;;;1.20;0.95;;;5.60;99.90;;;;;;5032253;27;20303;-78
2024/01/05 08:20:38;;;;;;;2.45;0.85;;;5.50;99.90;;;;;;5031551;28;20203;-79
2024/01/05 08:23:05;;;;;;;2.50;1.50;;;5.60;99.90;;;;;;5047834;28;20299;-79
2024/01/05 08:25:33;;;;;;;2.00;1.15;;;5.70;99.90;;;;;;5051588;28;20333;-79
2024/01/05 08:28:02;;;;;;;2.25;1.40;;;5.80;99.90;;;;;;5059093;27;20224;-79
2024/01/05 08:30:30;;;;;;;2.55;1.30;;;5.80;99.90;;;;;;5050687;27;20279;-79
2024/01/05 08:32:57;;;;;;;1.02;0.93;;;5.90;99.90;;;;;;5059851;27;20221;-79
2024/01/05 08:35:24;;;;;;;1.30;1.05;;;5.90;99.90;;;;;;5062700;27;20234;-79
2024/01/05 08:37:51;;;;;;;1.38;0.95;;;5.90;99.90;;;;;;5057635;28;20234;-79
2024/01/05 08:40:18;;;;;;;1.25;1.00;;;6.00;99.90;;;;;;5059894;27;21847;-79
2024/01/05 08:42:46;;;;;;;1.40;1.30;;;6.10;99.90;;;;;;5054445;28;20286;-78
2024/01/05 08:45:16;;;;;;;1.75;1.65;;;6.10;99.90;;;;;;5049979;28;20653;-78
2024/01/05 08:47:43;;;;;;;1.30;1.20;;;6.10;99.90;;;;;;5056219;27;20303;-78
2024/01/05 08:50:10;;;;;;;2.38;2.10;;;6.10;99.90;;;;;;5048344;28;20256;-78
2024/01/05 08:52:37;;;;;;;1.83;1.70;;;6.00;99.90;;;;;;5074738;27;20652;-78
2024/01/05 08:55:04;;;;;;;3.05;2.20;;;6.10;99.90;;;;;;5045759;27;20565;-78
2024/01/05 08:57:31;;;;;;;2.50;2.30;;;6.10;99.90;;;;;;5046726;28;20653;-78
2024/01/05 08:59:59;;;;;;;15.05;2.75;;;6.00;99.90;;;;;;5050146;28;20672;-83
2024/01/05 09:02:27;;;;;;;1.65;1.55;;;6.10;99.90;;;;;;5050566;28;20283;-82
2024/01/05 09:04:54;;;;;;;1.50;1.15;;;6.10;99.90;;;;;;5053106;27;20206;-82
2024/01/05 09:07:21;;;;;;;1.42;1.20;;;6.00;99.90;;;;;;5044797;27;20200;-82
2024/01/05 09:09:48;;;;;;;1.83;1.58;;;6.10;99.90;;;;;;5041292;28;20221;-82
2024/01/05 09:12:14;;;;;;;1.20;1.05;;;6.20;99.90;;;;;;5046519;28;20303;-82
2024/01/05 09:14:41;;;;;;;1.55;1.15;;;6.20;99.90;;;;;;5047749;28;20291;-82
2024/01/05 09:17:09;;;;;;;0.85;0.85;;;6.10;99.90;;;;;;5047724;28;20219;-82
2024/01/05 09:19:36;;;;;;;1.35;1.20;;;6.20;99.90;;;;;;5047257;28;20210;-82
2024/01/05 09:22:03;;;;;;;1.03;1.00;;;6.20;99.90;;;;;;5041193;27;20204;-81
2024/01/05 09:24:31;;;;;;;0.80;0.80;;;6.20;99.90;;;;;;5046714;28;20721;-82
2024/01/05 09:26:58;;;;;;;1.85;0.73;;;6.20;99.90;;;;;;5059654;27;20207;-82
2024/01/05 09:29:25;;;;;;;4.20;1.02;;;6.30;99.90;;;;;;5058725;28;20325;-82
2024/01/05 09:31:51;;;;;;;1.00;0.80;;;6.30;99.90;;;;;;5058053;28;20209;-82
2024/01/05 09:34:19;;;;;;;2.60;1.60;;;6.40;99.90;;;;;;5047822;28;20613;-82
2024/01/05 09:36:47;;;;;;;0.70;0.70;;;6.40;99.90;;;;;;5037453;28;20691;-82
2024/01/05 09:39:14;;;;;;;0.98;0.98;;;6.40;99.90;;;;;;5052853;28;20721;-83
2024/01/05 09:41:42;;;;;;;1.60;1.27;;;6.50;99.90;;;;;;5053535;28;20203;-83
2024/01/05 09:44:11;;;;;;;1.10;1.00;;;6.60;99.90;;;;;;5051668;27;20665;-83
2024/01/05 09:46:39;;;;;;;1.23;1.13;;;6.50;99.90;;;;;;5058326;28;20984;-83
2024/01/05 09:49:09;;;;;;;1.23;1.20;;;6.60;99.90;;;;;;5052076;28;20310;-83
2024/01/05 09:51:38;;;;;;;2.00;1.50;;;6.60;99.90;;;;;;5045687;28;20622;-83
2024/01/05 09:54:05;;;;;;;4.70;2.17;;;6.60;99.90;;;;;;5044701;28;21007;-83
2024/01/05 09:56:33;;;;;;;4.30;2.17;;;6.70;99.90;;;;;;5041184;28;20986;-82
2024/01/05 09:59:00;;;;;;;2.27;1.40;;;6.80;99.90;;;;;;5044949;28;20980;-82
2024/01/05 10:01:28;;;;;;;2.30;2.10;;;6.90;99.90;;;;;;5041260;27;20907;-82
2024/01/05 10:03:56;;;;;;;2.03;1.47;;;7.00;99.90;;;;;;5043305;27;20623;-82
2024/01/05 10:06:24;;;;;;;2.97;1.40;;;7.00;99.90;;;;;;5042388;27;20627;-82
2024/01/05 10:08:54;;;;;;;2.63;0.90;;;6.90;99.90;;;;;;5050770;28;20689;-82
2024/01/05 10:11:30;;;;;;;1.83;1.67;;;7.10;99.90;;;;;;5039361;28;20633;-82
2024/01/05 10:14:00;;;;;;;5.73;1.67;;;7.10;99.90;;;;;;5033525;28;20668;-82
2024/01/05 10:16:34;;;;;;;2.50;2.10;;;7.20;99.90;;;;;;5048180;28;20637;-82
2024/01/05 10:19:11;;;;;;;1.43;1.33;;;7.20;99.90;;;;;;5047403;28;21020;-82
2024/01/05 10:21:38;;;;;;;2.00;1.90;;;7.30;99.90;;;;;;5041459;28;21032;-83
2024/01/05 10:24:15;;;;;;;0.70;0.70;;;7.30;99.90;;;;;;5046596;27;21288;-83
2024/01/05 10:26:42;;;;;;;1.40;1.30;;;7.30;99.90;;;;;;5051080;28;20628;-83
2024/01/05 10:29:16;;;;;;;2.20;0.97;;;7.40;99.90;;;;;;5052153;28;20667;-82
2024/01/05 10:31:43;;;;;;;1.20;1.10;;;7.40;99.90;;;;;;5055499;27;20632;-82
2024/01/05 10:34:10;;;;;;;1.60;1.50;;;7.40;99.90;;;;;;5061033;28;20977;-83
2024/01/05 10:36:37;;;;;;;1.60;1.50;;;7.50;99.90;;;;;;5055034;28;20732;-83
2024/01/05 10:39:08;;;;;;;2.70;1.60;;;7.50;99.90;;;;;;5053742;27;20961;-82
2024/01/05 10:41:37;;;;;;;1.43;1.30;;;7.60;99.90;;;;;;5051649;27;20757;-82
2024/01/05 10:44:04;;;;;;;0.83;0.80;;;7.70;99.90;;;;;;5058838;28;20729;-82
2024/01/05 10:46:33;;;;;;;3.20;1.27;;;7.70;99.90;;;;;;5044931;28;21196;-82
2024/01/05 10:49:02;;;;;;;3.07;1.30;;;7.70;99.90;;;;;;5051524;28;20761;-83
2024/01/05 10:51:29;;;;;;;0.83;0.70;;;7.80;99.90;;;;;;5047907;27;20691;-83
2024/01/05 10:53:57;;;;;;;4.43;1.60;;;7.80;99.90;;;;;;5053481;28;20656;-83
2024/01/05 10:56:28;;;;;;;1.90;1.80;;;7.80;99.90;;;;;;5038276;28;21214;-83
2024/01/05 10:58:57;;;;;;;4.50;1.30;;;7.90;99.90;;;;;;5052802;27;20633;-83
2024/01/05 11:01:24;;;;;;;1.10;1.00;;;7.90;99.90;;;;;;5052069;28;21281;-83
2024/01/05 11:03:54;;;;;;;2.60;2.10;;;8.00;99.90;;;;;;5049307;28;20757;-83
2024/01/05 11:06:22;;;;;;;1.30;1.20;;;8.00;99.90;;;;;;5046505;28;21061;-80
2024/01/05 11:09:03;;;;;;;2.40;1.90;;;8.10;99.90;;;;;;5042547;28;20860;-80
2024/01/05 11:11:43;;;;;;;1.70;1.37;;;8.10;99.90;;;;;;5043003;28;20636;-83
2024/01/05 11:14:41;;;;;;;4.93;1.00;;;8.10;99.90;;;;;;5037028;28;20659;-82
2024/01/05 11:17:30;;;;;;;3.00;2.10;;;8.20;99.90;;;;;;5027352;28;20656;-75
2024/01/05 11:20:12;;;;;;;2.80;1.70;;;8.30;99.90;;;;;;5031692;28;20994;-74
2024/01/05 11:22:43;;;;;;;2.10;2.00;;;8.20;99.90;;;;;;5032819;28;20635;-79
2024/01/05 11:25:10;;;;;;;1.63;1.40;;;8.40;99.90;;;;;;5027633;28;20727;-77
2024/01/05 11:27:38;;;;;;;2.50;1.20;;;8.40;99.90;;;;;;5024576;28;20628;-78
2024/01/05 11:30:08;;;;;;;1.27;1.13;;;8.40;99.90;;;;;;5052137;27;21179;-78
2024/01/05 11:32:37;;;;;;;1.07;0.80;;;8.40;99.90;;;;;;5061294;27;20635;-82
2024/01/05 11:35:25;;;;;;;1.80;1.60;;;8.40;99.90;;;;;;5051545;27;20631;-82
2024/01/05 11:37:52;;;;;;;1.20;1.10;;;8.40;99.90;;;;;;5046099;28;21359;-79
2024/01/05 11:40:28;;;;;;;3.47;1.20;;;8.50;99.90;;;;;;5058248;27;20627;-78
2024/01/05 11:42:57;;;;;;;2.20;1.30;;;8.50;99.90;;;;;;5054378;28;20970;-76
2024/01/05 11:45:49;;;;;;;0.93;0.93;;;8.50;99.90;;;;;;5044705;27;20698;-81
2024/01/05 11:48:47;;;;;;;1.90;1.47;;;8.50;99.90;;;;;;5051887;28;21042;-79
2024/01/05 11:51:14;;;;;;;1.50;1.37;;;8.50;99.90;;;;;;5039192;28;20637;-77
2024/01/05 11:53:42;;;;;;;1.83;1.50;;;8.40;99.90;;;;;;5054981;28;21246;-80
2024/01/05 11:56:10;;;;;;;2.90;1.33;;;8.40;99.90;;;;;;5043279;28;20731;-80
2024/01/05 11:58:39;;;;;;;1.10;1.00;;;8.50;99.90;;;;;;5051268;27;21029;-80
2024/01/05 12:01:09;;;;;;;7.13;1.53;;;8.50;99.90;;;;;;5044096;27;20725;-80
2024/01/05 12:03:38;;;;;;;2.33;2.03;;;8.50;99.90;;;;;;5066255;27;20987;-85
2024/01/05 12:06:06;;;;;;;2.43;1.30;;;8.50;99.90;;;;;;5049546;27;20939;-83
2024/01/05 12:08:33;;;;;;;1.30;1.20;;;8.50;99.90;;;;;;5040578;28;20729;-75
2024/01/05 12:11:02;;;;;;;1.30;1.20;;;8.50;99.90;;;;;;5040556;28;21122;-76
2024/01/05 12:13:33;;;;;;;2.90;1.13;;;8.50;99.90;;;;;;5037208;28;20698;-76
2024/01/05 12:16:02;;;;;;;0.90;0.90;;;8.50;99.90;;;;;;5039816;28;20669;-77
2024/01/05 12:18:31;;;;;;;1.50;1.40;;;8.50;99.90;;;;;;5043572;27;20633;-76
2024/01/05 12:21:00;;;;;;;2.00;1.57;;;8.50;99.90;;;;;;5032725;28;21177;-76
2024/01/05 12:23:27;;;;;;;6.00;1.77;;;8.60;99.90;;;;;;5040129;27;20632;-76
2024/01/05 12:26:01;;;;;;;1.70;1.60;;;8.60;99.90;;;;;;5034379;28;20742;-76
2024/01/05 12:28:29;;;;;;;1.37;1.27;;;8.60;99.90;;;;;;5035218;28;20730;-76
2024/01/05 12:30:57;;;;;;;2.43;1.63;;;8.50;99.90;;;;;;5056093;28;20674;-77
2024/01/05 12:33:25;;;;;;;2.70;1.70;;;8.60;99.90;;;;;;5056331;27;20634;-77
2024/01/05 12:35:54;;;;;;;1.60;1.37;;;8.60;99.90;;;;;;5038877;28;20972;-76
2024/01/05 12:38:25;;;;;;;1.83;1.17;;;8.60;99.90;;;;;;5045001;28;20628;-77
2024/01/05 12:40:51;;;;;;;1.73;1.10;;;8.60;99.90;;;;;;5043498;28;20732;-76
2024/01/05 12:43:18;;;;;;;2.37;1.47;;;8.60;99.90;;;;;;5048297;28;20620;-77
2024/01/05 12:45:49;;;;;;;3.50;1.90;;;8.70;99.90;;;;;;5052110;28;21477;-76
2024/01/05 12:48:17;;;;;;;1.50;1.40;;;8.60;99.90;;;;;;5052120;28;21169;-77
2024/01/05 12:50:45;;;;;;;1.73;1.23;;;8.60;99.90;;;;;;5055014;28;20667;-76
2024/01/05 12:53:20;;;;;;;1.33;1.20;;;8.70;99.90;;;;;;5039079;28;20624;-76
2024/01/05 12:55:47;;;;;;;2.80;1.33;;;8.60;99.90;;;;;;5038794;27;20731;-76
2024/01/05 12:58:14;;;;;;;1.53;1.43;;;8.70;99.90;;;;;;5046108;28;20740;-76
2024/01/05 13:00:43;;;;;;;1.50;1.37;;;8.70;99.90;;;;;;5052740;28;20746;-76
2024/01/05 13:03:17;;;;;;;2.77;1.77;;;8.70;99.90;;;;;;5046914;28;20638;-76